createdAt,value
2024-02-24T00:01:53.483Z,2.20
2024-02-24T00:04:20.294Z,2.53
2024-02-24T00:06:47.139Z,2.20
2024-02-24T00:09:13.896Z,2.73
2024-02-24T00:11:40.878Z,2.17
2024-02-24T00:14:07.725Z,2.27
2024-02-24T00:16:34.561Z,2.40
2024-02-24T00:19:01.385Z,2.57
2024-02-24T00:21:28.491Z,2.40
2024-02-24T00:23:55.399Z,2.20
2024-02-24T00:26:22.182Z,2.03
2024-02-24T00:28:49.844Z,2.20
2024-02-24T00:31:16.568Z,2.30
2024-02-24T00:33:44.712Z,1.70
2024-02-24T00:36:11.705Z,2.10
2024-02-24T00:38:38.700Z,2.10
2024-02-24T00:41:05.618Z,1.83
2024-02-24T00:43:32.350Z,2.73
2024-02-24T00:46:00.042Z,2.17
2024-02-24T00:48:29.061Z,2.53
2024-02-24T00:50:55.924Z,2.20
2024-02-24T00:53:22.816Z,2.20
2024-02-24T00:55:49.588Z,2.53
2024-02-24T00:58:16.301Z,2.27
2024-02-24T01:00:43.017Z,2.40
2024-02-24T01:03:09.747Z,2.13
2024-02-24T01:05:36.576Z,2.63
2024-02-24T01:08:03.567Z,2.70
2024-02-24T01:10:30.377Z,2.77
2024-02-24T01:12:57.199Z,2.73
2024-02-24T01:15:25.693Z,2.50
2024-02-24T01:17:57.132Z,2.70
2024-02-24T01:20:26.516Z,2.80
2024-02-24T01:22:55.066Z,2.60
2024-02-24T01:25:22.312Z,2.40
2024-02-24T01:27:50.791Z,2.47
2024-02-24T01:30:18.024Z,2.70
2024-02-24T01:32:44.968Z,2.93
2024-02-24T01:35:11.877Z,2.43
2024-02-24T01:37:38.656Z,2.90
2024-02-24T01:40:06.864Z,2.63
2024-02-24T01:42:33.707Z,2.90
2024-02-24T01:45:00.873Z,2.80
2024-02-24T01:47:27.736Z,2.83
2024-02-24T01:49:56.602Z,3.07
2024-02-24T01:52:24.684Z,2.90
2024-02-24T01:54:56.493Z,2.90
2024-02-24T01:57:26.538Z,2.90
2024-02-24T01:59:54.533Z,3.33
2024-02-24T02:02:22.729Z,3.10
2024-02-24T02:04:49.546Z,3.63
2024-02-24T02:07:18.901Z,4.00
2024-02-24T02:09:58.770Z,3.33
2024-02-24T02:12:26.732Z,3.57
2024-02-24T02:14:53.658Z,3.43
2024-02-24T02:17:21.306Z,3.17
2024-02-24T02:19:48.262Z,4.30
2024-02-24T02:22:18.926Z,5.50
2024-02-24T02:24:46.134Z,4.90
2024-02-24T02:27:13.350Z,4.60
2024-02-24T02:29:40.145Z,4.20
2024-02-24T02:32:09.167Z,3.33
2024-02-24T02:34:36.218Z,3.53
2024-02-24T02:37:03.113Z,3.80
2024-02-24T02:39:30.022Z,3.43
2024-02-24T02:41:56.727Z,3.50
2024-02-24T02:44:25.060Z,3.30
2024-02-24T02:46:52.082Z,4.07
2024-02-24T02:49:19.408Z,2.90
2024-02-24T02:51:46.723Z,2.70
2024-02-24T02:54:13.485Z,2.40
2024-02-24T02:56:40.220Z,2.83
2024-02-24T02:59:07.050Z,3.00
2024-02-24T03:01:33.801Z,3.03
2024-02-24T03:04:00.542Z,2.90
2024-02-24T03:06:27.367Z,3.37
2024-02-24T03:08:56.967Z,2.70
2024-02-24T03:11:24.544Z,3.50
2024-02-24T03:13:51.420Z,3.30
2024-02-24T03:16:19.664Z,2.63
2024-02-24T03:18:46.771Z,2.87
2024-02-24T03:21:23.849Z,3.00
2024-02-24T03:23:50.528Z,3.47
2024-02-24T03:26:17.280Z,3.10
2024-02-24T03:28:43.983Z,2.97
2024-02-24T03:31:10.655Z,2.73
2024-02-24T03:33:37.452Z,2.80
2024-02-24T03:36:04.469Z,2.07
2024-02-24T03:38:31.323Z,2.30
2024-02-24T03:40:59.165Z,2.50
2024-02-24T03:43:25.884Z,2.23
2024-02-24T03:45:52.601Z,1.80
2024-02-24T03:48:19.497Z,2.23
2024-02-24T03:50:46.356Z,2.47
2024-02-24T03:53:14.693Z,1.77
2024-02-24T03:55:41.379Z,1.60
2024-02-24T03:58:08.731Z,1.60
2024-02-24T04:00:38.579Z,2.00
2024-02-24T04:03:05.624Z,1.97
2024-02-24T04:05:32.370Z,1.67
2024-02-24T04:07:59.164Z,1.50
2024-02-24T04:10:25.868Z,1.37
2024-02-24T04:12:52.542Z,1.83
2024-02-24T04:15:20.507Z,1.60
2024-02-24T04:17:47.838Z,1.20
2024-02-24T04:20:15.636Z,1.40
2024-02-24T04:22:42.740Z,1.53
2024-02-24T04:25:10.254Z,1.43
2024-02-24T04:27:37.467Z,1.60
2024-02-24T04:30:04.641Z,1.77
2024-02-24T04:32:31.487Z,1.50
2024-02-24T04:34:58.145Z,1.87
2024-02-24T04:37:24.812Z,1.33
2024-02-24T04:39:53.256Z,1.57
2024-02-24T04:42:20.283Z,1.40
2024-02-24T04:44:50.598Z,2.07
2024-02-24T04:47:19.374Z,1.90
2024-02-24T04:49:46.093Z,1.20
2024-02-24T04:52:12.851Z,1.50
2024-02-24T04:54:39.548Z,1.20
2024-02-24T04:57:06.212Z,1.50
2024-02-24T04:59:32.909Z,1.50
2024-02-24T05:01:59.594Z,1.67
2024-02-24T05:04:26.375Z,1.70
2024-02-24T05:06:53.336Z,1.60
2024-02-24T05:09:20.188Z,1.40
2024-02-24T05:11:47.376Z,1.30
2024-02-24T05:14:17.398Z,1.80
2024-02-24T05:16:44.200Z,1.70
2024-02-24T05:19:11.025Z,1.70
2024-02-24T05:21:38.006Z,1.87
2024-02-24T05:24:05.234Z,1.90
2024-02-24T05:26:32.020Z,1.43
2024-02-24T05:28:59.396Z,1.67
2024-02-24T05:31:26.193Z,2.10
2024-02-24T05:33:54.659Z,2.00
2024-02-24T05:36:21.543Z,1.80
2024-02-24T05:38:48.429Z,1.90
2024-02-24T05:41:15.274Z,1.97
2024-02-24T05:43:42.077Z,1.87
2024-02-24T05:46:08.795Z,1.90
2024-02-24T05:48:38.397Z,1.80
2024-02-24T05:51:10.969Z,1.60
2024-02-24T05:53:38.706Z,1.83
2024-02-24T05:56:06.030Z,1.40
2024-02-24T05:58:32.784Z,1.70
2024-02-24T06:01:00.159Z,1.83
2024-02-24T06:03:27.351Z,1.73
2024-02-24T06:05:54.282Z,1.97
2024-02-24T06:08:21.156Z,1.93
2024-02-24T06:10:48.168Z,2.13
2024-02-24T06:13:15.141Z,1.73
2024-02-24T06:15:41.937Z,2.10
2024-02-24T06:18:08.854Z,2.20
2024-02-24T06:20:35.657Z,1.87
2024-02-24T06:23:02.644Z,2.37
2024-02-24T06:25:29.443Z,2.10
2024-02-24T06:27:56.119Z,2.10
2024-02-24T06:30:22.837Z,2.33
2024-02-24T06:32:49.573Z,2.20
2024-02-24T06:35:16.337Z,2.17
2024-02-24T06:37:43.422Z,2.60
2024-02-24T06:40:12.435Z,2.10
2024-02-24T06:42:39.748Z,2.10
2024-02-24T06:45:06.915Z,2.33
2024-02-24T06:47:33.683Z,2.60
2024-02-24T06:50:00.516Z,2.13
2024-02-24T06:52:27.201Z,2.10
2024-02-24T06:54:54.058Z,1.90
2024-02-24T06:57:20.852Z,2.00
2024-02-24T06:59:48.610Z,1.10
2024-02-24T07:02:15.625Z,1.17
2024-02-24T07:04:43.568Z,1.20
2024-02-24T07:07:10.654Z,1.33
2024-02-24T07:09:37.822Z,1.63
2024-02-24T07:12:05.037Z,1.00
2024-02-24T07:14:31.939Z,0.87
2024-02-24T07:16:58.643Z,0.80
2024-02-24T07:19:25.499Z,0.70
2024-02-24T07:21:52.251Z,0.50
2024-02-24T07:24:19.089Z,0.70
2024-02-24T07:26:50.443Z,0.77
2024-02-24T07:29:17.852Z,0.70
2024-02-24T07:31:44.632Z,0.70
2024-02-24T07:34:11.775Z,0.87
2024-02-24T07:36:38.646Z,0.80
2024-02-24T07:39:06.059Z,0.70
2024-02-24T07:41:32.894Z,0.80
2024-02-24T07:43:59.659Z,0.70
2024-02-24T07:46:32.673Z,0.70
2024-02-24T07:49:01.433Z,1.10
2024-02-24T07:51:29.438Z,0.80
2024-02-24T07:53:57.391Z,0.80
2024-02-24T07:56:25.301Z,0.90
2024-02-24T07:58:52.572Z,1.20
2024-02-24T08:01:19.458Z,0.97
2024-02-24T08:03:46.538Z,0.90
2024-02-24T08:06:13.337Z,0.60
2024-02-24T08:08:40.514Z,0.30
2024-02-24T08:11:08.191Z,0.50
2024-02-24T08:13:42.828Z,0.30
2024-02-24T08:16:10.651Z,0.50
2024-02-24T08:18:37.597Z,0.30
2024-02-24T08:21:08.162Z,0.40
2024-02-24T08:23:38.167Z,0.67
2024-02-24T08:26:05.399Z,1.00
2024-02-24T08:28:32.179Z,0.50
2024-02-24T08:31:01.018Z,0.40
2024-02-24T08:33:28.379Z,0.53
2024-02-24T08:35:55.367Z,0.40
2024-02-24T08:38:22.317Z,0.40
2024-02-24T08:40:49.283Z,0.30
2024-02-24T08:43:16.152Z,0.30
2024-02-24T08:45:43.046Z,0.40
2024-02-24T08:48:13.971Z,0.47
2024-02-24T08:50:41.816Z,0.30
2024-02-24T08:53:08.799Z,0.43
2024-02-24T08:55:35.680Z,0.97
2024-02-24T08:58:02.525Z,0.50
2024-02-24T09:00:29.342Z,0.50
2024-02-24T09:02:56.188Z,0.47
2024-02-24T09:05:23.226Z,0.33
2024-02-24T09:07:50.107Z,0.37
2024-02-24T09:10:17.056Z,0.50
2024-02-24T09:12:43.877Z,0.40
2024-02-24T09:15:10.877Z,0.30
2024-02-24T09:17:37.907Z,0.43
2024-02-24T09:20:05.141Z,0.20
2024-02-24T09:22:32.007Z,0.30
2024-02-24T09:24:58.823Z,0.20
2024-02-24T09:27:25.679Z,0.30
2024-02-24T09:29:52.566Z,0.30
2024-02-24T09:32:19.783Z,0.20
2024-02-24T09:34:46.724Z,0.30
2024-02-24T09:37:13.638Z,0.50
2024-02-24T09:39:41.889Z,0.27
2024-02-24T09:42:10.800Z,0.30
2024-02-24T09:44:38.228Z,0.70
2024-02-24T09:47:06.602Z,0.60
2024-02-24T09:49:33.443Z,0.30
2024-02-24T09:52:01.388Z,0.40
2024-02-24T09:54:29.008Z,0.37
2024-02-24T09:56:57.526Z,0.20
2024-02-24T09:59:25.958Z,0.20
2024-02-24T10:01:52.939Z,0.13
2024-02-24T10:04:20.498Z,0.13
2024-02-24T10:06:47.442Z,0.30
2024-02-24T10:09:14.291Z,0.10
2024-02-24T10:11:41.828Z,0.20
2024-02-24T10:14:09.533Z,0.30
2024-02-24T10:16:38.355Z,0.20
2024-02-24T10:19:06.722Z,0.30
2024-02-24T10:21:34.602Z,0.40
2024-02-24T10:24:02.093Z,0.20
2024-02-24T10:26:29.243Z,0.40
2024-02-24T10:28:56.323Z,0.40
2024-02-24T10:31:28.238Z,0.40
2024-02-24T10:33:56.313Z,0.47
2024-02-24T10:36:27.115Z,0.30
2024-02-24T10:38:56.214Z,0.30
2024-02-24T10:41:26.742Z,0.40
2024-02-24T10:44:09.746Z,0.73
2024-02-24T10:46:42.412Z,0.30
2024-02-24T10:49:10.677Z,0.60
2024-02-24T10:51:38.309Z,0.60
2024-02-24T10:54:13.679Z,0.50
2024-02-24T10:56:41.357Z,0.80
2024-02-24T10:59:12.708Z,0.40
2024-02-24T11:01:44.755Z,0.70
2024-02-24T11:04:13.294Z,0.50
2024-02-24T11:06:48.947Z,0.20
2024-02-24T11:09:36.103Z,0.30
2024-02-24T11:12:09.157Z,0.50
2024-02-24T11:14:43.857Z,0.10
2024-02-24T11:17:12.163Z,0.40
2024-02-24T11:19:46.906Z,0.20
2024-02-24T11:22:22.264Z,0.40
2024-02-24T11:25:05.609Z,0.30
2024-02-24T11:27:37.609Z,0.70
2024-02-24T11:30:39.715Z,0.20
2024-02-24T11:33:30.790Z,1.63
2024-02-24T11:35:59.321Z,0.30
2024-02-24T11:38:26.641Z,0.20
2024-02-24T11:40:54.129Z,0.10
2024-02-24T11:43:21.406Z,0.10
2024-02-24T11:45:52.267Z,0.10
2024-02-24T11:48:20.650Z,0.20
2024-02-24T11:50:48.765Z,0.23
2024-02-24T11:53:17.754Z,0.10
2024-02-24T11:55:48.589Z,0.20
2024-02-24T11:58:16.403Z,0.30
2024-02-24T12:00:43.359Z,0.30
2024-02-24T12:03:15.466Z,0.10
2024-02-24T12:05:43.315Z,0.20
2024-02-24T12:08:13.631Z,0.10
2024-02-24T12:10:41.352Z,0.40
2024-02-24T12:13:11.078Z,0.13
2024-02-24T12:15:55.982Z,0.30
2024-02-24T12:18:26.072Z,0.10
2024-02-24T12:20:54.601Z,0.20
2024-02-24T12:23:23.444Z,0.10
2024-02-24T12:25:50.469Z,0.10
2024-02-24T12:28:18.944Z,0.23
2024-02-24T12:30:46.380Z,0.20
2024-02-24T12:33:18.608Z,0.17
2024-02-24T12:35:49.117Z,0.30
2024-02-24T12:38:19.586Z,0.23
2024-02-24T12:40:46.772Z,0.30
2024-02-24T12:43:13.851Z,0.20
2024-02-24T12:45:40.683Z,0.27
2024-02-24T12:48:08.563Z,0.20
2024-02-24T12:50:35.957Z,0.20
2024-02-24T12:53:07.336Z,0.20
2024-02-24T12:55:34.444Z,0.20
2024-02-24T12:58:01.549Z,0.30
2024-02-24T13:00:28.372Z,0.47
2024-02-24T13:02:57.299Z,0.30
2024-02-24T13:05:24.383Z,0.20
2024-02-24T13:07:53.079Z,0.13
2024-02-24T13:10:20.749Z,0.10
2024-02-24T13:12:47.637Z,0.10
2024-02-24T13:15:14.513Z,0.10
2024-02-24T13:17:41.260Z,0.20
2024-02-24T13:20:08.958Z,0.10
2024-02-24T13:22:41.274Z,0.10
2024-02-24T13:25:09.811Z,0.10
2024-02-24T13:27:36.658Z,0.10
2024-02-24T13:30:04.084Z,0.10
2024-02-24T13:32:31.034Z,0.10
2024-02-24T13:34:57.835Z,0.10
2024-02-24T13:37:24.648Z,0.10
2024-02-24T13:39:53.412Z,0.10
2024-02-24T13:42:20.280Z,0.20
2024-02-24T13:44:47.172Z,0.10
2024-02-24T13:47:16.080Z,0.20
2024-02-24T13:49:43.155Z,0.10
2024-02-24T13:52:09.995Z,0.20
2024-02-24T13:54:36.692Z,0.30
2024-02-24T13:57:03.806Z,0.17
2024-02-24T13:59:30.679Z,0.10
2024-02-24T14:01:58.631Z,0.10
2024-02-24T14:04:26.479Z,0.20
2024-02-24T14:06:53.459Z,0.20
2024-02-24T14:09:20.332Z,0.10
2024-02-24T14:11:47.242Z,0.20
2024-02-24T14:14:14.273Z,0.20
2024-02-24T14:16:46.589Z,0.10
2024-02-24T14:19:13.728Z,0.20
2024-02-24T14:21:40.613Z,0.20
2024-02-24T14:24:07.480Z,0.10
2024-02-24T14:26:34.315Z,0.10
2024-02-24T14:29:02.397Z,0.13
2024-02-24T14:31:31.535Z,0.10
2024-02-24T14:33:58.607Z,0.10
2024-02-24T14:36:25.608Z,0.20
2024-02-24T14:38:52.371Z,0.17
2024-02-24T14:41:19.231Z,0.30
2024-02-24T14:43:46.427Z,0.20
2024-02-24T14:46:13.276Z,0.20
2024-02-24T14:48:40.854Z,0.30
2024-02-24T14:51:07.850Z,0.30
2024-02-24T14:53:34.685Z,0.43
2024-02-24T14:56:01.699Z,0.20
2024-02-24T14:58:28.751Z,0.30
2024-02-24T15:00:55.672Z,0.40
2024-02-24T15:03:22.618Z,0.20
2024-02-24T15:05:49.459Z,0.50
2024-02-24T15:08:17.390Z,0.30
2024-02-24T15:10:44.260Z,0.30
2024-02-24T15:13:20.159Z,0.50
2024-02-24T15:15:50.304Z,0.30
2024-02-24T15:18:17.269Z,0.50
2024-02-24T15:20:44.790Z,0.60
2024-02-24T15:23:11.678Z,0.40
2024-02-24T15:25:38.415Z,0.73
2024-02-24T15:28:06.620Z,0.50
2024-02-24T15:30:33.478Z,0.43
2024-02-24T15:33:01.835Z,0.60
2024-02-24T15:35:28.728Z,0.60
2024-02-24T15:37:55.555Z,0.50
2024-02-24T15:40:22.271Z,0.37
2024-02-24T15:42:49.011Z,0.70
2024-02-24T15:45:15.693Z,0.40
2024-02-24T15:47:43.602Z,0.50
2024-02-24T15:50:11.039Z,0.20
2024-02-24T15:52:37.898Z,0.20
2024-02-24T15:55:04.908Z,0.30
2024-02-24T15:57:31.622Z,0.20
2024-02-24T15:59:58.467Z,0.30
2024-02-24T16:02:25.290Z,0.40
2024-02-24T16:04:52.212Z,1.10
2024-02-24T16:07:19.055Z,2.10
2024-02-24T16:09:46.531Z,1.80
2024-02-24T16:12:13.401Z,0.50
2024-02-24T16:14:40.255Z,0.30
2024-02-24T16:17:07.114Z,0.40
2024-02-24T16:19:34.135Z,0.17
2024-02-24T16:22:00.905Z,0.20
2024-02-24T16:24:29.285Z,0.43
2024-02-24T16:26:57.460Z,0.40
2024-02-24T16:29:24.421Z,0.50
2024-02-24T16:31:51.181Z,1.77
2024-02-24T16:34:18.317Z,0.63
2024-02-24T16:36:45.263Z,1.30
2024-02-24T16:39:12.670Z,0.70
2024-02-24T16:41:39.927Z,0.90
2024-02-24T16:44:09.811Z,0.90
2024-02-24T16:46:44.806Z,0.50
2024-02-24T16:49:11.766Z,0.30
2024-02-24T16:51:38.986Z,0.60
2024-02-24T16:54:05.755Z,0.33
2024-02-24T16:56:33.108Z,0.40
2024-02-24T16:59:00.680Z,0.40
2024-02-24T17:01:27.432Z,0.40
2024-02-24T17:03:54.188Z,0.30
2024-02-24T17:06:22.234Z,0.47
2024-02-24T17:08:49.255Z,0.50
2024-02-24T17:11:20.921Z,0.47
2024-02-24T17:13:48.076Z,0.50
2024-02-24T17:16:14.948Z,0.60
2024-02-24T17:18:42.063Z,0.40
2024-02-24T17:21:09.209Z,0.50
2024-02-24T17:23:38.731Z,0.67
2024-02-24T17:26:06.030Z,0.67
2024-02-24T17:28:33.033Z,0.60
2024-02-24T17:31:00.313Z,0.93
2024-02-24T17:33:27.182Z,0.60
2024-02-24T17:35:54.122Z,0.50
2024-02-24T17:38:25.165Z,0.70
2024-02-24T17:40:52.224Z,0.50
2024-02-24T17:43:19.034Z,0.70
2024-02-24T17:45:45.692Z,0.50
2024-02-24T17:48:12.597Z,0.70
2024-02-24T17:50:39.522Z,0.80
2024-02-24T17:53:06.322Z,0.80
2024-02-24T17:55:33.289Z,0.80
2024-02-24T17:58:00.108Z,0.60
2024-02-24T18:00:28.412Z,0.60
2024-02-24T18:02:55.639Z,0.60
2024-02-24T18:05:22.563Z,0.70
2024-02-24T18:07:53.796Z,0.60
2024-02-24T18:10:20.655Z,0.53
2024-02-24T18:12:47.700Z,0.50
2024-02-24T18:15:14.788Z,0.67
2024-02-24T18:17:41.964Z,0.50
2024-02-24T18:20:09.553Z,0.67
2024-02-24T18:22:37.152Z,0.70
2024-02-24T18:25:04.274Z,0.50
2024-02-24T18:27:31.732Z,0.70
2024-02-24T18:30:01.025Z,0.70
2024-02-24T18:32:29.647Z,0.70
2024-02-24T18:34:57.056Z,0.60
2024-02-24T18:37:24.110Z,0.67
2024-02-24T18:39:51.213Z,0.60
2024-02-24T18:42:21.629Z,0.50
2024-02-24T18:44:48.400Z,0.47
2024-02-24T18:47:15.549Z,0.90
2024-02-24T18:49:42.479Z,0.90
2024-02-24T18:52:11.473Z,0.80
2024-02-24T18:54:38.684Z,1.13
2024-02-24T18:57:05.819Z,0.87
2024-02-24T18:59:32.788Z,0.97
2024-02-24T19:01:59.726Z,0.80
2024-02-24T19:04:26.519Z,0.90
2024-02-24T19:06:53.349Z,0.83
2024-02-24T19:09:20.066Z,1.10
2024-02-24T19:11:47.403Z,1.20
2024-02-24T19:14:17.146Z,1.10
2024-02-24T19:16:44.153Z,1.27
2024-02-24T19:19:11.029Z,1.00
2024-02-24T19:21:37.931Z,1.40
2024-02-24T19:24:05.730Z,1.30
2024-02-24T19:26:32.642Z,1.60
2024-02-24T19:28:59.383Z,1.43
2024-02-24T19:31:26.195Z,1.27
2024-02-24T19:33:53.158Z,1.40
2024-02-24T19:36:20.079Z,1.50
2024-02-24T19:38:46.872Z,1.40
2024-02-24T19:41:15.043Z,1.80
2024-02-24T19:43:41.732Z,1.50
2024-02-24T19:46:08.483Z,2.03
2024-02-24T19:48:35.469Z,1.77
2024-02-24T19:51:03.809Z,1.70
2024-02-24T19:53:30.689Z,1.97
2024-02-24T19:55:57.465Z,1.60
2024-02-24T19:58:32.936Z,1.80
2024-02-24T20:01:02.065Z,1.93
2024-02-24T20:03:28.905Z,2.03
2024-02-24T20:05:55.745Z,1.90
2024-02-24T20:08:22.642Z,2.03
2024-02-24T20:10:49.493Z,1.80
2024-02-24T20:13:16.253Z,2.17
2024-02-24T20:15:43.016Z,1.80
2024-02-24T20:18:09.935Z,2.10
2024-02-24T20:20:36.808Z,1.73
2024-02-24T20:23:03.671Z,1.80
2024-02-24T20:25:30.424Z,1.73
2024-02-24T20:27:57.199Z,1.90
2024-02-24T20:30:23.936Z,2.00
2024-02-24T20:32:53.917Z,1.90
2024-02-24T20:35:21.247Z,1.60
2024-02-24T20:37:48.354Z,1.70
2024-02-24T20:40:15.547Z,1.80
2024-02-24T20:42:42.466Z,2.00
2024-02-24T20:45:09.761Z,2.10
2024-02-24T20:47:36.708Z,1.83
2024-02-24T20:50:03.737Z,1.90
2024-02-24T20:52:30.468Z,1.87
2024-02-24T20:54:57.261Z,2.33
2024-02-24T20:57:24.010Z,2.77
2024-02-24T20:59:51.813Z,2.60
2024-02-24T21:02:18.828Z,2.20
2024-02-24T21:04:45.746Z,2.47
2024-02-24T21:07:12.579Z,2.53
2024-02-24T21:09:39.386Z,2.23
2024-02-24T21:12:08.364Z,2.20
2024-02-24T21:14:35.115Z,2.10
2024-02-24T21:17:02.127Z,2.30
2024-02-24T21:19:29.178Z,2.10
2024-02-24T21:21:56.874Z,2.83
2024-02-24T21:24:23.758Z,4.90
2024-02-24T21:26:50.675Z,3.40
2024-02-24T21:29:17.677Z,2.80
2024-02-24T21:31:44.460Z,3.23
2024-02-24T21:34:11.527Z,3.63
2024-02-24T21:36:38.562Z,3.70
2024-02-24T21:39:05.626Z,5.33
2024-02-24T21:41:37.337Z,7.20
2024-02-24T21:44:05.390Z,7.20
2024-02-24T21:46:33.295Z,6.50
2024-02-24T21:49:00.711Z,6.60
2024-02-24T21:51:27.852Z,5.03
2024-02-24T21:53:54.750Z,6.10
2024-02-24T21:56:24.352Z,5.37
2024-02-24T21:58:51.460Z,5.60
2024-02-24T22:01:20.037Z,4.97
2024-02-24T22:03:47.174Z,5.43
2024-02-24T22:06:14.289Z,5.47
2024-02-24T22:08:41.274Z,4.80
2024-02-24T22:11:08.241Z,3.67
2024-02-24T22:13:35.298Z,4.10
2024-02-24T22:16:02.117Z,4.07
2024-02-24T22:18:29.242Z,4.43
2024-02-24T22:20:56.303Z,4.80
2024-02-24T22:23:23.140Z,4.60
2024-02-24T22:25:49.919Z,4.17
2024-02-24T22:28:16.905Z,4.23
2024-02-24T22:30:44.899Z,4.13
2024-02-24T22:33:11.932Z,4.97
2024-02-24T22:35:38.811Z,4.07
2024-02-24T22:38:05.646Z,4.60
2024-02-24T22:40:32.973Z,4.40
2024-02-24T22:43:00.033Z,4.30
2024-02-24T22:45:26.993Z,3.90
2024-02-24T22:47:54.017Z,4.23
2024-02-24T22:50:21.055Z,4.43
2024-02-24T22:52:50.976Z,3.93
2024-02-24T22:55:29.598Z,4.83
2024-02-24T22:58:24.487Z,4.40
2024-02-24T23:01:29.279Z,3.97
2024-02-24T23:04:20.212Z,4.60
2024-02-24T23:07:03.007Z,4.47
2024-02-24T23:09:55.009Z,4.00
2024-02-24T23:12:26.239Z,4.07
2024-02-24T23:14:55.883Z,3.60
2024-02-24T23:17:36.725Z,3.40
2024-02-24T23:20:31.252Z,3.33
2024-02-24T23:26:24.318Z,2.87
2024-02-24T23:29:00.427Z,3.17
2024-02-24T23:32:03.447Z,2.60
2024-02-24T23:34:30.350Z,3.63
2024-02-24T23:36:57.226Z,4.43
2024-02-24T23:39:24.161Z,3.20
2024-02-24T23:41:53.600Z,3.50
2024-02-24T23:44:21.056Z,4.10
2024-02-24T23:46:47.905Z,4.07
2024-02-24T23:49:16.870Z,4.10
2024-02-24T23:51:44.186Z,4.47
2024-02-24T23:54:10.966Z,4.40
2024-02-24T23:56:37.872Z,4.87
2024-02-24T23:59:04.711Z,5.63
